Terminal Aerodrome Forecast
Issued by NWS Pendleton, OR

Home | Current Version | Previous Version | Text Only | Print | Product List | Glossary On
Versions: 1 2 3 4 5 6 7 8 9 10 11 12 13 14 15 16 17 18 19 20 21
000
FTUS46 KPDT 282200 AAC
TAFPDT
TAF AMD
KPDT 282210Z 2822/2918 32010KT P6SM -SHRA SCT020 OVC050
     FM290200 28007KT P6SM -SHRA SCT025 OVC050
     FM290600 23006KT 5SM -SHSN BR SCT015 OVC020=

USA.gov is the U.S. government's official web portal to all federal, state and local government web resources and services.